Time;durP1;ratioP1;P1;durP2;ratioP2;P2;SDS_P1;SDS_P2;PMS_P1;PMS_P2;Temp;Humidity;BMP_temperature;BMP_pressure;BME280_temperature;BME280_humidity;BME280_pressure;Samples;Min_cycle;Max_cycle;Signal;HPM_P1;HPM_P2
2023/03/27 00:02:08;;;;;;;10.47;10.17;;;6.70;99.90;;;;;;5130623;28;20225;-82
2023/03/27 00:04:35;;;;;;;10.40;10.10;;;6.70;99.90;;;;;;5132447;28;20982;-82
2023/03/27 00:07:04;;;;;;;10.43;10.13;;;6.70;99.90;;;;;;5131537;28;20225;-82
2023/03/27 00:09:36;;;;;;;10.60;10.30;;;6.70;99.90;;;;;;5130318;28;20225;-82
2023/03/27 00:12:03;;;;;;;10.50;10.20;;;6.70;99.90;;;;;;5129952;28;20212;-82
2023/03/27 00:14:33;;;;;;;10.70;10.40;;;6.70;99.90;;;;;;5129184;28;20228;-82
2023/03/27 00:17:03;;;;;;;10.60;10.30;;;6.80;99.90;;;;;;5128467;28;20231;-82
2023/03/27 00:19:35;;;;;;;10.50;10.20;;;6.70;99.90;;;;;;5128195;28;20244;-82
2023/03/27 00:22:02;;;;;;;10.60;10.30;;;6.80;99.90;;;;;;5135298;27;20228;-82
2023/03/27 00:24:31;;;;;;;10.33;10.03;;;6.70;99.90;;;;;;5131674;28;20220;-82
2023/03/27 00:27:00;;;;;;;10.60;10.30;;;6.70;99.90;;;;;;5132303;28;20235;-82
2023/03/27 00:29:29;;;;;;;10.60;10.30;;;6.70;99.90;;;;;;5130621;28;20233;-82
2023/03/27 00:31:58;;;;;;;10.60;10.30;;;6.70;99.90;;;;;;5129874;28;20316;-82
2023/03/27 00:34:29;;;;;;;10.53;10.23;;;6.70;99.90;;;;;;5129384;28;20221;-82
2023/03/27 00:37:03;;;;;;;10.50;10.20;;;6.70;99.90;;;;;;5129112;28;20221;-82
2023/03/27 00:39:38;;;;;;;10.43;10.13;;;6.70;99.90;;;;;;5134796;28;20254;-82
2023/03/27 00:42:05;;;;;;;10.37;10.07;;;6.70;99.90;;;;;;5136525;28;20221;-82
2023/03/27 00:44:36;;;;;;;10.60;10.30;;;6.70;99.90;;;;;;5132277;28;20260;-82
2023/03/27 00:47:06;;;;;;;10.60;10.30;;;6.60;99.90;;;;;;5130930;28;20240;-82
2023/03/27 00:49:36;;;;;;;10.50;10.20;;;6.60;99.90;;;;;;5130202;28;20270;-82
2023/03/27 00:52:15;;;;;;;10.50;10.20;;;6.60;99.90;;;;;;5129208;28;20251;-82
2023/03/27 00:54:53;;;;;;;10.53;10.23;;;6.60;99.90;;;;;;5131213;28;20230;-81
2023/03/27 00:57:20;;;;;;;10.53;10.23;;;6.60;99.90;;;;;;5134060;28;20209;-81
2023/03/27 00:59:50;;;;;;;10.33;10.03;;;6.50;99.90;;;;;;5118821;27;20297;-82
2023/03/27 01:02:18;;;;;;;10.50;10.20;;;6.50;99.90;;;;;;5112721;28;20226;-82
2023/03/27 01:04:48;;;;;;;10.27;9.97;;;6.40;99.90;;;;;;5128445;28;20246;-82
2023/03/27 01:07:27;;;;;;;10.30;10.00;;;6.30;99.90;;;;;;5111013;28;20233;-82
2023/03/27 01:09:55;;;;;;;10.17;9.87;;;6.30;99.90;;;;;;5109604;28;20233;-82
2023/03/27 01:12:42;;;;;;;10.40;10.10;;;6.20;99.90;;;;;;5110582;28;20225;-82
2023/03/27 01:15:29;;;;;;;10.40;10.10;;;6.10;99.90;;;;;;5110204;28;20241;-82
2023/03/27 01:18:25;;;;;;;10.40;10.10;;;6.00;99.90;;;;;;5121684;28;20228;-82
2023/03/27 01:21:47;;;;;;;10.40;10.10;;;6.00;99.90;;;;;;5112002;28;20237;-84
2023/03/27 01:25:10;;;;;;;10.40;10.10;;;5.90;99.90;;;;;;5109159;28;20316;-82
2023/03/27 01:28:16;;;;;;;10.30;10.00;;;6.00;99.90;;;;;;5086023;28;20234;-82
2023/03/27 01:30:52;;;;;;;10.30;10.00;;;5.90;99.90;;;;;;5108189;28;20293;-82
2023/03/27 01:34:23;;;;;;;10.20;9.90;;;5.80;99.90;;;;;;5108141;28;20217;-82
2023/03/27 01:37:28;;;;;;;10.30;10.00;;;5.80;99.90;;;;;;5067786;28;20223;-82
2023/03/27 01:40:06;;;;;;;10.40;10.10;;;5.60;99.90;;;;;;5105151;28;20306;-82
2023/03/27 01:42:45;;;;;;;10.20;9.90;;;5.60;99.90;;;;;;5113438;28;20232;-82
2023/03/27 01:45:22;;;;;;;10.37;10.07;;;5.60;99.90;;;;;;5128063;28;20243;-82
2023/03/27 01:48:00;;;;;;;10.20;9.90;;;5.60;99.90;;;;;;5127556;28;20213;-82
2023/03/27 01:50:33;;;;;;;10.20;9.90;;;5.50;99.90;;;;;;5127947;28;20232;-82
2023/03/27 01:53:10;;;;;;;10.20;9.90;;;5.50;99.90;;;;;;5129482;27;20259;-82
2023/03/27 01:55:50;;;;;;;10.03;9.73;;;5.50;99.90;;;;;;5127702;28;20312;-82
2023/03/27 02:01:06;;;;;;;10.03;9.73;;;5.40;99.90;;;;;;5134343;28;20238;-81
2023/03/27 02:03:40;;;;;;;10.17;9.87;;;5.40;99.90;;;;;;5131087;28;20228;-82
2023/03/27 02:06:13;;;;;;;10.07;9.77;;;5.40;99.90;;;;;;5130896;28;20212;-82
2023/03/27 02:08:52;;;;;;;10.30;10.00;;;5.40;99.90;;;;;;5128512;28;20278;-82
2023/03/27 02:11:29;;;;;;;10.40;10.10;;;5.40;99.90;;;;;;5128732;28;20225;-82
2023/03/27 02:14:01;;;;;;;10.37;10.07;;;5.30;99.90;;;;;;5127945;28;20231;-82
2023/03/27 02:16:41;;;;;;;10.47;10.17;;;5.30;99.90;;;;;;5126596;28;20280;-82
2023/03/27 02:19:18;;;;;;;10.33;10.03;;;5.30;99.90;;;;;;5126407;28;20209;-82
2023/03/27 02:21:47;;;;;;;10.50;10.20;;;5.20;99.90;;;;;;5126556;28;20232;-82
2023/03/27 02:24:17;;;;;;;10.50;10.20;;;5.20;99.90;;;;;;5127093;28;20232;-82
2023/03/27 02:26:53;;;;;;;10.63;10.33;;;5.20;99.90;;;;;;5127560;28;20221;-82
2023/03/27 02:29:40;;;;;;;10.70;10.40;;;5.10;99.90;;;;;;5127253;28;20311;-81
2023/03/27 02:32:26;;;;;;;10.60;10.30;;;5.10;99.90;;;;;;5130174;28;20251;-82
2023/03/27 02:35:14;;;;;;;10.50;10.20;;;5.10;99.90;;;;;;5127880;28;20288;-81
2023/03/27 02:37:52;;;;;;;10.40;10.10;;;5.10;99.90;;;;;;5127186;28;20216;-82
2023/03/27 02:40:38;;;;;;;10.60;10.30;;;5.00;99.90;;;;;;5126031;28;20231;-82
2023/03/27 02:43:28;;;;;;;10.50;10.20;;;5.00;99.90;;;;;;5125484;28;20241;-82
2023/03/27 02:46:04;;;;;;;10.60;10.30;;;4.90;99.90;;;;;;5127279;27;20532;-82
2023/03/27 02:48:34;;;;;;;10.40;10.10;;;4.90;99.90;;;;;;5131039;28;20224;-81
2023/03/27 02:51:10;;;;;;;10.40;10.10;;;4.90;99.90;;;;;;5136898;28;20207;-81
2023/03/27 02:53:49;;;;;;;10.60;10.30;;;4.90;99.90;;;;;;5141156;28;20238;-81
2023/03/27 02:56:21;;;;;;;10.43;10.13;;;4.90;99.90;;;;;;5133848;28;20232;-82
2023/03/27 02:58:57;;;;;;;10.30;10.00;;;4.90;99.90;;;;;;5133675;27;20231;-80
2023/03/27 03:01:29;;;;;;;10.30;10.00;;;4.80;99.90;;;;;;5143073;27;20207;-82
2023/03/27 03:04:06;;;;;;;10.43;10.13;;;4.80;99.90;;;;;;5127326;27;20232;-82
2023/03/27 03:06:35;;;;;;;10.20;9.90;;;4.70;99.90;;;;;;5125751;28;20217;-82
2023/03/27 03:09:05;;;;;;;10.13;9.83;;;4.70;99.90;;;;;;5125479;28;20239;-82
2023/03/27 03:11:34;;;;;;;10.40;10.10;;;4.70;99.90;;;;;;5125922;28;20303;-82
2023/03/27 03:14:06;;;;;;;10.50;10.20;;;4.70;99.90;;;;;;5126231;28;20228;-82
2023/03/27 03:16:33;;;;;;;10.57;10.27;;;4.70;99.90;;;;;;5126552;28;20231;-82
2023/03/27 03:19:02;;;;;;;10.10;9.80;;;4.70;99.90;;;;;;5126258;28;20228;-82
2023/03/27 03:21:31;;;;;;;10.10;9.80;;;4.70;99.90;;;;;;5126518;28;20316;-83
2023/03/27 03:24:00;;;;;;;10.13;9.83;;;4.60;99.90;;;;;;5126610;28;20302;-82
2023/03/27 03:26:29;;;;;;;10.10;9.80;;;4.60;99.90;;;;;;5127766;28;20255;-82
2023/03/27 03:29:00;;;;;;;10.10;9.80;;;4.60;99.90;;;;;;5132673;28;20300;-83
2023/03/27 03:31:43;;;;;;;10.07;9.77;;;4.60;99.90;;;;;;5132397;27;20213;-82
2023/03/27 03:34:18;;;;;;;10.13;9.83;;;4.50;99.90;;;;;;5131552;28;20259;-83
2023/03/27 03:36:47;;;;;;;10.00;9.70;;;4.50;99.90;;;;;;5132934;28;20259;-82
2023/03/27 03:39:16;;;;;;;10.10;9.80;;;4.50;99.90;;;;;;5130974;28;20249;-82
2023/03/27 03:41:44;;;;;;;10.30;10.00;;;4.50;99.90;;;;;;5129323;28;20220;-82
2023/03/27 03:44:13;;;;;;;9.93;9.63;;;4.50;99.90;;;;;;5128379;28;20327;-82
2023/03/27 03:46:55;;;;;;;10.10;9.80;;;4.50;99.90;;;;;;5129420;28;21111;-83
2023/03/27 03:49:22;;;;;;;10.03;9.73;;;4.40;99.90;;;;;;5128179;28;20240;-84
2023/03/27 03:51:54;;;;;;;10.20;9.90;;;4.40;99.90;;;;;;5128796;28;20320;-82
2023/03/27 03:54:22;;;;;;;10.40;10.10;;;4.40;99.90;;;;;;5128848;28;20229;-82
2023/03/27 03:56:51;;;;;;;10.30;10.00;;;4.40;99.90;;;;;;5128154;27;20221;-82
2023/03/27 03:59:21;;;;;;;10.23;9.93;;;4.40;99.90;;;;;;5128136;28;20237;-83
2023/03/27 04:01:54;;;;;;;10.10;9.80;;;4.40;99.90;;;;;;5127966;28;20229;-82
2023/03/27 04:04:22;;;;;;;10.20;9.90;;;4.40;99.90;;;;;;5127635;28;20239;-83
2023/03/27 04:06:49;;;;;;;10.27;9.97;;;4.40;99.90;;;;;;5127750;27;20275;-81
2023/03/27 04:09:19;;;;;;;10.50;10.20;;;4.30;99.90;;;;;;5127474;28;20233;-81
2023/03/27 04:11:48;;;;;;;10.40;10.10;;;4.30;99.90;;;;;;5127994;27;20308;-81
2023/03/27 04:14:17;;;;;;;10.50;10.20;;;4.20;99.90;;;;;;5127618;28;20239;-82
2023/03/27 04:16:47;;;;;;;10.47;10.17;;;4.20;99.90;;;;;;5135183;28;20232;-81
2023/03/27 04:19:21;;;;;;;10.43;10.13;;;4.10;99.90;;;;;;5131052;28;20239;-81
2023/03/27 04:21:48;;;;;;;10.47;10.17;;;4.10;99.90;;;;;;5131147;28;20354;-82
2023/03/27 04:24:17;;;;;;;10.50;10.20;;;4.10;99.90;;;;;;5135614;28;20235;-82
2023/03/27 04:26:45;;;;;;;10.47;10.17;;;4.00;99.90;;;;;;5132515;28;20236;-82
2023/03/27 04:29:14;;;;;;;10.40;10.10;;;4.00;99.90;;;;;;5131340;28;20232;-82
2023/03/27 04:31:45;;;;;;;10.20;9.90;;;3.90;99.90;;;;;;5130181;28;20217;-82
2023/03/27 04:34:13;;;;;;;10.37;10.07;;;3.90;99.90;;;;;;5130057;28;20315;-82
2023/03/27 04:36:54;;;;;;;10.40;10.10;;;3.80;99.90;;;;;;5128773;28;20233;-82
2023/03/27 04:39:22;;;;;;;10.23;9.93;;;3.80;99.90;;;;;;5128297;28;20238;-82
2023/03/27 04:41:52;;;;;;;10.20;9.90;;;3.80;99.90;;;;;;5128803;28;20239;-82
2023/03/27 04:44:20;;;;;;;10.03;9.73;;;3.70;99.90;;;;;;5128160;27;20233;-82
2023/03/27 04:46:49;;;;;;;9.97;9.67;;;3.70;99.90;;;;;;5128422;28;20232;-82
2023/03/27 04:49:19;;;;;;;10.00;9.70;;;3.70;99.90;;;;;;5128349;28;20225;-82
2023/03/27 04:54:35;;;;;;;10.03;9.73;;;3.60;99.90;;;;;;5124116;28;20217;-82
2023/03/27 04:57:04;;;;;;;9.70;9.40;;;3.60;99.90;;;;;;5129323;28;20292;-82
2023/03/27 04:59:33;;;;;;;10.47;10.17;;;3.60;99.90;;;;;;5128542;28;20239;-82
2023/03/27 05:02:04;;;;;;;10.60;10.30;;;3.60;99.90;;;;;;5128584;28;20231;-80
2023/03/27 05:04:32;;;;;;;10.93;10.63;;;3.60;99.90;;;;;;5133235;28;20221;-81
2023/03/27 05:07:13;;;;;;;10.90;10.60;;;3.60;99.90;;;;;;5137352;28;20248;-81
2023/03/27 05:09:41;;;;;;;10.90;10.60;;;3.50;99.90;;;;;;5131422;27;20232;-81
2023/03/27 05:12:10;;;;;;;11.07;10.77;;;3.60;99.90;;;;;;5130632;28;20261;-81
2023/03/27 05:14:39;;;;;;;11.07;10.77;;;3.60;99.90;;;;;;5129435;28;20224;-84
2023/03/27 05:17:08;;;;;;;10.77;10.47;;;3.60;99.90;;;;;;5128176;28;20323;-83
2023/03/27 05:19:39;;;;;;;11.07;10.77;;;3.60;99.90;;;;;;5126835;28;20247;-82
2023/03/27 05:22:10;;;;;;;11.00;10.70;;;3.60;99.90;;;;;;5126575;28;20244;-82
2023/03/27 05:24:37;;;;;;;11.07;10.77;;;3.60;99.90;;;;;;5126911;28;20233;-83
2023/03/27 05:27:07;;;;;;;11.00;10.70;;;3.60;99.90;;;;;;5127581;28;20257;-83
2023/03/27 05:29:35;;;;;;;10.90;10.60;;;3.60;99.90;;;;;;5127706;28;20326;-82
2023/03/27 05:32:05;;;;;;;10.77;10.47;;;3.50;99.90;;;;;;5130152;28;20217;-82
2023/03/27 05:34:37;;;;;;;10.80;10.50;;;3.60;99.90;;;;;;5129370;28;20330;-82
2023/03/27 05:37:05;;;;;;;10.90;10.60;;;3.60;99.90;;;;;;5128068;28;20228;-83
2023/03/27 05:39:37;;;;;;;10.70;10.40;;;3.60;99.90;;;;;;5127869;28;20235;-82
2023/03/27 05:42:04;;;;;;;10.53;10.23;;;3.60;99.90;;;;;;5127590;28;20248;-83
2023/03/27 05:44:32;;;;;;;10.00;9.70;;;3.60;99.90;;;;;;5127759;28;20236;-83
2023/03/27 05:47:02;;;;;;;10.40;10.10;;;3.50;99.90;;;;;;5128299;28;20310;-82
2023/03/27 05:49:32;;;;;;;10.30;10.00;;;3.50;99.90;;;;;;5127778;28;20237;-82
2023/03/27 05:52:04;;;;;;;10.20;9.90;;;3.40;99.90;;;;;;5128678;28;20216;-82
2023/03/27 05:54:34;;;;;;;10.30;10.00;;;3.40;99.90;;;;;;5128594;28;20252;-83
2023/03/27 05:57:02;;;;;;;10.10;9.80;;;3.40;99.90;;;;;;5128155;28;20244;-82
2023/03/27 05:59:32;;;;;;;9.90;9.60;;;3.40;99.90;;;;;;5126376;28;20292;-83
2023/03/27 06:02:00;;;;;;;9.70;9.40;;;3.40;99.90;;;;;;5128864;28;20267;-82
2023/03/27 06:04:30;;;;;;;9.90;9.60;;;3.40;99.90;;;;;;5129782;28;20235;-83
2023/03/27 06:07:01;;;;;;;10.10;9.80;;;3.40;99.90;;;;;;5128238;28;20224;-83
2023/03/27 06:09:28;;;;;;;10.30;10.00;;;3.40;99.90;;;;;;5131793;28;20263;-82
2023/03/27 06:12:01;;;;;;;10.50;10.20;;;3.50;99.90;;;;;;5128253;28;20317;-83
2023/03/27 06:14:29;;;;;;;10.70;10.40;;;3.50;99.90;;;;;;5127610;28;20232;-83
2023/03/27 06:16:57;;;;;;;10.80;10.50;;;3.50;99.90;;;;;;5127816;28;20229;-82
2023/03/27 06:19:26;;;;;;;10.40;10.10;;;3.50;99.90;;;;;;5126700;28;20289;-83
2023/03/27 06:21:55;;;;;;;10.27;9.97;;;3.50;99.90;;;;;;5130088;28;20328;-82
2023/03/27 06:24:25;;;;;;;10.50;10.20;;;3.60;99.90;;;;;;5130711;28;20221;-83
2023/03/27 06:26:54;;;;;;;10.47;10.17;;;3.60;99.90;;;;;;5131011;28;20358;-83
2023/03/27 06:29:28;;;;;;;10.50;10.20;;;3.60;99.90;;;;;;5131093;28;20247;-82
2023/03/27 06:31:56;;;;;;;10.65;10.35;;;3.60;99.90;;;;;;5130885;28;20311;-82
2023/03/27 06:34:24;;;;;;;10.70;10.40;;;3.60;99.90;;;;;;5132507;28;20228;-82
2023/03/27 06:36:53;;;;;;;10.67;10.37;;;3.70;99.90;;;;;;5133270;28;20260;-82
2023/03/27 06:39:22;;;;;;;10.50;10.20;;;3.70;99.90;;;;;;5132218;28;20268;-83
2023/03/27 06:41:51;;;;;;;10.67;10.37;;;3.70;99.90;;;;;;5133163;28;20216;-79
2023/03/27 06:44:21;;;;;;;10.50;10.20;;;3.70;99.90;;;;;;5132782;28;20239;-82
2023/03/27 06:46:51;;;;;;;10.40;10.10;;;3.60;99.90;;;;;;5130596;28;20304;-83
2023/03/27 06:49:20;;;;;;;10.20;9.90;;;3.70;99.90;;;;;;5131924;28;20241;-81
2023/03/27 06:51:47;;;;;;;10.57;10.27;;;3.60;99.90;;;;;;5134677;28;20218;-82
2023/03/27 06:54:19;;;;;;;10.70;10.40;;;3.60;99.90;;;;;;5136590;28;20240;-81
2023/03/27 06:56:48;;;;;;;10.07;9.77;;;3.70;99.90;;;;;;5125057;28;20273;-81
2023/03/27 06:59:18;;;;;;;10.10;9.80;;;3.60;99.90;;;;;;5115850;28;20335;-81
2023/03/27 07:01:47;;;;;;;10.23;9.93;;;3.60;99.90;;;;;;5115297;28;20221;-81
2023/03/27 07:07:03;;;;;;;10.50;10.20;;;3.60;99.90;;;;;;5122472;28;20229;-82
2023/03/27 07:09:32;;;;;;;10.37;10.07;;;3.60;99.90;;;;;;5112667;28;20316;-81
2023/03/27 07:12:03;;;;;;;10.17;9.87;;;3.50;99.90;;;;;;5113037;28;20248;-81
2023/03/27 07:14:30;;;;;;;10.10;9.80;;;3.50;99.90;;;;;;5112896;28;20229;-81
2023/03/27 07:17:01;;;;;;;9.87;9.57;;;3.50;99.90;;;;;;5115395;28;20297;-81
2023/03/27 07:19:32;;;;;;;10.00;9.70;;;3.50;99.90;;;;;;5123317;27;20228;-81
2023/03/27 07:22:00;;;;;;;9.90;9.60;;;3.60;99.90;;;;;;5128800;28;20237;-82
2023/03/27 07:24:29;;;;;;;10.10;9.80;;;3.60;99.90;;;;;;5114816;28;20253;-81
2023/03/27 07:26:58;;;;;;;10.30;10.00;;;3.70;99.90;;;;;;5112873;28;20253;-82
2023/03/27 07:29:28;;;;;;;10.20;9.90;;;3.70;99.90;;;;;;5116291;28;20244;-79
2023/03/27 07:31:57;;;;;;;10.37;10.07;;;3.50;99.90;;;;;;5115847;28;20245;-83
2023/03/27 07:34:27;;;;;;;10.30;10.00;;;3.50;99.90;;;;;;5120579;28;20257;-82
2023/03/27 07:37:07;;;;;;;10.30;10.00;;;3.40;99.90;;;;;;5128994;28;20257;-82
2023/03/27 07:39:35;;;;;;;10.00;9.70;;;3.50;99.90;;;;;;5132410;27;20225;-81
2023/03/27 07:42:04;;;;;;;9.87;9.57;;;3.50;99.90;;;;;;5132344;28;20228;-81
2023/03/27 07:44:33;;;;;;;9.70;9.40;;;3.60;99.90;;;;;;5131081;28;20236;-83
2023/03/27 07:47:03;;;;;;;9.27;8.97;;;3.60;99.90;;;;;;5131127;28;20300;-84
2023/03/27 07:49:32;;;;;;;9.80;9.50;;;3.60;99.90;;;;;;5128055;27;20289;-83
2023/03/27 07:52:14;;;;;;;9.60;9.30;;;3.50;99.90;;;;;;5111628;28;20313;-82
2023/03/27 07:54:42;;;;;;;9.80;9.50;;;3.60;99.90;;;;;;5110281;28;21058;-83
2023/03/27 07:57:12;;;;;;;9.67;9.37;;;3.60;99.90;;;;;;5110491;28;20236;-82
2023/03/27 07:59:44;;;;;;;9.70;9.40;;;3.60;99.90;;;;;;5108627;28;20320;-82
2023/03/27 08:02:12;;;;;;;9.90;9.60;;;3.60;99.90;;;;;;5110823;28;20217;-81
2023/03/27 08:04:40;;;;;;;10.23;9.93;;;3.60;99.90;;;;;;5112902;28;20230;-81
2023/03/27 08:09:56;;;;;;;9.70;9.40;;;3.70;99.90;;;;;;5109962;28;20225;-81
2023/03/27 08:12:26;;;;;;;9.47;9.17;;;3.80;99.90;;;;;;5111473;28;20206;-81
2023/03/27 08:14:55;;;;;;;9.70;9.40;;;4.00;99.90;;;;;;5111083;28;20249;-79
2023/03/27 08:17:23;;;;;;;9.50;9.20;;;4.10;99.90;;;;;;5112576;28;20264;-82
2023/03/27 08:19:52;;;;;;;9.80;9.50;;;4.20;99.90;;;;;;5111480;28;20789;-81
2023/03/27 08:22:27;;;;;;;9.40;9.10;;;4.30;99.90;;;;;;5111842;28;20282;-81
2023/03/27 08:24:55;;;;;;;9.30;9.00;;;4.40;99.90;;;;;;5111413;28;20232;-81
2023/03/27 08:27:23;;;;;;;9.07;8.83;;;4.40;99.90;;;;;;5111628;28;20240;-81
2023/03/27 08:29:52;;;;;;;9.27;8.97;;;4.60;99.90;;;;;;5112810;28;20241;-80
2023/03/27 08:32:20;;;;;;;9.23;8.93;;;4.60;99.90;;;;;;5116083;28;20205;-80
2023/03/27 08:34:50;;;;;;;9.57;9.27;;;4.70;99.90;;;;;;5114168;28;20247;-81
2023/03/27 08:37:20;;;;;;;9.50;9.20;;;4.80;99.90;;;;;;5112867;28;20296;-81
2023/03/27 08:40:00;;;;;;;9.60;9.30;;;4.90;99.90;;;;;;5110648;28;20233;-82
2023/03/27 08:42:36;;;;;;;9.47;9.17;;;4.90;99.90;;;;;;5111129;28;20232;-82
2023/03/27 08:45:15;;;;;;;9.80;9.50;;;5.00;99.90;;;;;;5109835;28;20311;-82
2023/03/27 08:47:53;;;;;;;10.10;9.80;;;5.00;99.90;;;;;;5111773;28;20293;-81
2023/03/27 08:50:33;;;;;;;10.07;9.77;;;5.10;99.90;;;;;;5111538;28;20240;-82
2023/03/27 08:53:02;;;;;;;9.87;9.57;;;5.30;99.90;;;;;;5110461;28;20320;-82
2023/03/27 08:55:40;;;;;;;9.90;9.60;;;5.60;99.90;;;;;;5112933;28;20249;-81
2023/03/27 08:58:18;;;;;;;10.03;9.73;;;5.50;99.90;;;;;;5111282;28;20229;-82
2023/03/27 09:00:55;;;;;;;9.77;9.47;;;5.30;99.90;;;;;;5111460;28;20240;-81
2023/03/27 09:06:29;;;;;;;9.70;9.40;;;5.50;99.90;;;;;;5110653;28;20225;-81
2023/03/27 09:09:07;;;;;;;9.60;9.30;;;5.70;99.90;;;;;;5109888;28;20241;-81
2023/03/27 09:11:56;;;;;;;9.40;9.10;;;5.70;99.90;;;;;;5110558;28;20237;-81
2023/03/27 09:14:33;;;;;;;9.73;9.43;;;5.50;99.90;;;;;;5110042;28;20213;-81
2023/03/27 09:17:11;;;;;;;9.60;9.30;;;5.40;99.90;;;;;;5110292;28;20249;-81
2023/03/27 09:19:49;;;;;;;9.77;9.47;;;5.70;99.90;;;;;;5109972;28;20296;-82
2023/03/27 09:22:27;;;;;;;9.90;9.60;;;6.00;99.90;;;;;;5108497;28;20297;-82
2023/03/27 09:25:09;;;;;;;10.00;9.70;;;6.10;99.90;;;;;;5111285;28;21022;-82
2023/03/27 09:27:47;;;;;;;9.50;9.20;;;6.00;99.90;;;;;;5115229;28;20237;-80
2023/03/27 09:30:22;;;;;;;9.70;9.40;;;5.70;99.90;;;;;;5113277;28;20233;-83
2023/03/27 09:32:54;;;;;;;9.40;9.10;;;5.70;99.90;;;;;;5114505;28;20234;-82
2023/03/27 09:35:22;;;;;;;9.80;9.50;;;5.80;99.90;;;;;;5117358;28;20257;-81
2023/03/27 09:38:02;;;;;;;9.50;9.20;;;6.10;99.90;;;;;;5118407;28;20256;-83
2023/03/27 09:40:39;;;;;;;9.80;9.50;;;6.60;99.90;;;;;;5116465;28;20239;-83
2023/03/27 09:43:17;;;;;;;9.87;9.57;;;6.90;99.90;;;;;;5116325;28;20249;-83
2023/03/27 09:45:48;;;;;;;9.40;9.10;;;6.80;99.90;;;;;;5133999;28;20209;-85
2023/03/27 09:48:32;;;;;;;9.40;9.10;;;6.60;99.90;;;;;;5136843;28;20228;-84
2023/03/27 09:51:04;;;;;;;9.90;9.60;;;6.10;99.90;;;;;;5138482;28;20232;-83
2023/03/27 09:53:34;;;;;;;10.00;9.70;;;5.80;99.90;;;;;;5132081;28;20217;-84
2023/03/27 09:56:06;;;;;;;10.13;9.83;;;5.90;99.90;;;;;;5117845;28;20252;-81
2023/03/27 09:58:42;;;;;;;9.83;9.53;;;6.00;99.90;;;;;;5119053;27;20273;-80
2023/03/27 10:01:21;;;;;;;10.00;9.70;;;6.70;99.90;;;;;;5119208;28;20213;-81
2023/03/27 10:03:51;;;;;;;9.90;9.60;;;7.30;99.90;;;;;;5122253;28;20301;-82
2023/03/27 10:06:27;;;;;;;10.07;9.77;;;7.40;99.90;;;;;;5116119;28;20218;-80
2023/03/27 10:08:59;;;;;;;10.20;9.90;;;7.10;99.90;;;;;;5114861;28;20290;-81
2023/03/27 10:11:35;;;;;;;9.60;9.30;;;7.10;99.90;;;;;;5115482;28;20221;-81
2023/03/27 10:14:21;;;;;;;9.53;9.23;;;6.60;99.90;;;;;;5115634;28;20228;-81
2023/03/27 10:16:51;;;;;;;10.00;9.70;;;6.60;99.90;;;;;;5111412;28;20243;-84
2023/03/27 10:19:30;;;;;;;9.73;9.43;;;6.40;99.90;;;;;;5130901;28;20323;-84
2023/03/27 10:22:17;;;;;;;9.90;9.60;;;6.30;99.90;;;;;;5131219;28;20231;-84
2023/03/27 10:24:48;;;;;;;9.77;9.47;;;6.60;99.90;;;;;;5130762;28;20224;-84
2023/03/27 10:27:23;;;;;;;9.80;9.50;;;6.60;99.90;;;;;;5126695;28;20222;-83
2023/03/27 10:32:50;;;;;;;9.40;9.10;;;6.30;99.90;;;;;;5123512;28;20249;-82
2023/03/27 10:35:28;;;;;;;9.60;9.30;;;6.20;99.90;;;;;;5111508;28;20243;-83
2023/03/27 10:37:57;;;;;;;9.50;9.20;;;6.30;99.90;;;;;;5112564;28;20223;-82
2023/03/27 10:40:28;;;;;;;9.50;9.20;;;6.50;99.90;;;;;;5117341;28;20257;-81
2023/03/27 10:42:57;;;;;;;9.40;9.10;;;6.20;99.90;;;;;;5115288;28;20261;-83
2023/03/27 10:45:27;;;;;;;9.70;9.40;;;6.10;99.90;;;;;;5105818;28;20281;-81
2023/03/27 10:48:04;;;;;;;9.97;9.67;;;6.10;99.90;;;;;;5106382;28;20210;-82
2023/03/27 10:50:42;;;;;;;9.60;9.30;;;6.30;99.90;;;;;;5105319;28;20237;-80
2023/03/27 10:53:20;;;;;;;9.30;9.00;;;6.30;99.90;;;;;;5105305;28;20293;-80
2023/03/27 10:55:57;;;;;;;9.30;9.00;;;6.30;99.90;;;;;;5121442;28;20236;-81
2023/03/27 10:58:35;;;;;;;9.60;9.30;;;6.60;99.90;;;;;;5119160;28;20235;-81
2023/03/27 11:01:14;;;;;;;9.90;9.60;;;7.20;99.90;;;;;;5111464;28;20260;-81
2023/03/27 11:03:53;;;;;;;9.57;9.27;;;7.40;99.90;;;;;;5122017;28;20228;-82
2023/03/27 11:06:23;;;;;;;9.63;9.33;;;6.90;99.90;;;;;;5104997;28;20253;-80
2023/03/27 11:09:04;;;;;;;9.67;9.37;;;6.70;99.90;;;;;;5107505;28;20303;-81
2023/03/27 11:11:39;;;;;;;9.87;9.57;;;6.40;99.90;;;;;;5108987;28;20292;-81
2023/03/27 11:14:16;;;;;;;10.20;9.90;;;5.70;99.90;;;;;;5110094;28;20284;-81
2023/03/27 11:16:55;;;;;;;10.00;9.70;;;5.30;99.90;;;;;;5111979;28;20221;-83
2023/03/27 11:19:43;;;;;;;10.10;9.80;;;5.30;99.90;;;;;;5108215;28;20285;-82
2023/03/27 11:22:20;;;;;;;10.00;9.70;;;5.40;99.90;;;;;;5108319;28;20722;-82
2023/03/27 11:24:58;;;;;;;10.20;9.90;;;5.60;99.90;;;;;;5109544;28;20270;-83
2023/03/27 11:27:34;;;;;;;9.50;9.20;;;6.20;99.90;;;;;;5111023;28;20320;-81
2023/03/27 11:30:32;;;;;;;9.40;9.10;;;7.00;99.90;;;;;;5106211;28;20276;-81
2023/03/27 11:33:25;;;;;;;9.60;9.30;;;7.40;99.90;;;;;;5105666;28;20261;-82
2023/03/27 11:36:07;;;;;;;9.50;9.20;;;7.70;99.90;;;;;;5106513;28;20283;-84
2023/03/27 11:38:45;;;;;;;9.87;9.57;;;8.30;99.90;;;;;;5106733;28;20231;-84
2023/03/27 11:41:14;;;;;;;9.70;9.40;;;8.70;99.90;;;;;;5108781;28;20315;-83
2023/03/27 11:43:44;;;;;;;9.90;9.60;;;8.60;99.90;;;;;;5114694;28;20265;-81
2023/03/27 11:46:31;;;;;;;10.20;9.90;;;8.20;99.90;;;;;;5109931;28;20240;-80
2023/03/27 11:49:18;;;;;;;10.20;9.90;;;8.10;99.90;;;;;;5112123;28;20237;-80
2023/03/27 11:52:06;;;;;;;10.13;9.83;;;8.40;99.90;;;;;;5112523;28;20246;-82
2023/03/27 11:54:53;;;;;;;10.30;10.00;;;8.80;99.90;;;;;;5115122;28;20261;-80
2023/03/27 11:57:24;;;;;;;10.20;9.90;;;8.90;99.90;;;;;;5119574;28;20229;-80
2023/03/27 12:00:21;;;;;;;9.80;9.50;;;9.20;99.90;;;;;;5113346;28;20240;-81
2023/03/27 12:03:39;;;;;;;10.00;9.70;;;9.50;99.90;;;;;;5114716;28;20229;-81
2023/03/27 12:06:19;;;;;;;10.13;9.83;;;9.40;99.90;;;;;;5118918;28;20229;-80
2023/03/27 12:09:26;;;;;;;9.87;9.57;;;9.20;99.90;;;;;;5116196;28;20267;-81
2023/03/27 12:12:10;;;;;;;9.90;9.60;;;9.20;99.90;;;;;;5117602;28;20294;-81
2023/03/27 12:14:58;;;;;;;9.53;9.23;;;8.70;99.90;;;;;;5118433;28;20281;-81
2023/03/27 12:17:45;;;;;;;9.50;9.20;;;8.30;99.90;;;;;;5117514;28;20225;-81
2023/03/27 12:20:35;;;;;;;9.33;9.03;;;7.70;99.90;;;;;;5120320;28;20237;-81
2023/03/27 12:23:27;;;;;;;9.70;9.40;;;7.10;99.90;;;;;;5119706;28;20277;-80
2023/03/27 12:26:16;;;;;;;9.70;9.40;;;6.10;99.90;;;;;;5116760;28;20248;-81
2023/03/27 12:29:01;;;;;;;10.23;9.93;;;5.50;99.90;;;;;;5119251;28;20237;-81
2023/03/27 12:31:50;;;;;;;10.10;9.80;;;4.60;99.90;;;;;;5123311;28;20292;-80
2023/03/27 12:34:36;;;;;;;9.50;9.20;;;4.40;99.90;;;;;;5140540;27;20296;-81
2023/03/27 12:37:06;;;;;;;9.63;9.33;;;4.30;99.90;;;;;;5136785;28;20217;-81
2023/03/27 12:39:52;;;;;;;10.00;9.70;;;4.10;99.90;;;;;;5134817;27;20221;-81
2023/03/27 12:42:47;;;;;;;9.77;9.47;;;4.00;99.90;;;;;;5136493;28;20280;-82
2023/03/27 12:45:21;;;;;;;9.20;8.90;;;4.20;99.90;;;;;;5132697;28;20280;-81
2023/03/27 12:48:24;;;;;;;9.27;8.97;;;5.00;99.90;;;;;;5132257;28;20288;-81
2023/03/27 12:51:00;;;;;;;8.80;8.60;;;6.20;99.90;;;;;;5128373;28;20284;-82
2023/03/27 12:53:49;;;;;;;9.33;9.03;;;7.10;99.90;;;;;;5127139;28;20288;-81
2023/03/27 12:56:34;;;;;;;9.30;9.00;;;8.10;99.90;;;;;;5126203;28;20238;-82
2023/03/27 12:59:14;;;;;;;8.97;8.77;;;7.90;99.90;;;;;;5114265;28;20229;-82
2023/03/27 13:02:43;;;;;;;9.53;9.23;;;6.90;99.90;;;;;;5122957;28;20230;-82
2023/03/27 13:05:39;;;;;;;10.10;9.80;;;5.60;99.90;;;;;;5100567;28;20288;-82
2023/03/27 13:08:45;;;;;;;10.03;9.73;;;4.90;99.90;;;;;;5112328;28;20225;-82
2023/03/27 13:11:43;;;;;;;9.80;9.50;;;4.40;99.90;;;;;;5116167;28;20274;-82
2023/03/27 13:14:53;;;;;;;9.83;9.53;;;4.10;99.90;;;;;;5122221;28;20225;-82
2023/03/27 13:17:49;;;;;;;10.07;9.77;;;3.80;99.90;;;;;;5122770;28;20225;-81
2023/03/27 13:20:29;;;;;;;10.50;10.20;;;3.40;99.90;;;;;;5118155;28;20232;-82
2023/03/27 13:23:15;;;;;;;10.50;10.20;;;3.10;99.90;;;;;;5117097;28;20238;-82
2023/03/27 13:26:03;;;;;;;10.53;10.23;;;2.70;99.90;;;;;;5115961;28;20233;-82
2023/03/27 13:28:41;;;;;;;10.37;10.07;;;2.70;99.90;;;;;;5128288;28;20216;-82
2023/03/27 13:31:13;;;;;;;9.53;9.23;;;2.80;99.90;;;;;;5133268;28;20251;-83
2023/03/27 13:33:48;;;;;;;9.50;9.20;;;3.10;99.90;;;;;;5127858;28;20238;-82
2023/03/27 13:36:19;;;;;;;9.60;9.30;;;3.60;99.90;;;;;;5126786;28;20236;-82
2023/03/27 13:39:12;;;;;;;9.37;9.07;;;4.00;99.90;;;;;;5127000;27;20290;-82
2023/03/27 13:42:08;;;;;;;9.30;9.00;;;4.20;99.90;;;;;;5127365;28;20239;-82
2023/03/27 13:44:49;;;;;;;9.27;8.97;;;4.60;99.90;;;;;;5126562;28;20233;-82
2023/03/27 13:51:08;;;;;;;9.40;9.10;;;5.40;99.90;;;;;;5126448;28;20247;-82